sensor_id;sensor_type;location;lat;lon;timestamp;pressure;altitude;pressure_sealevel;temperature;humidity
58757;BME280;44527;47.460;19.016;2023-05-16T00:01:19;99837.25;;;13.94;100.00
58757;BME280;44527;47.460;19.016;2023-05-16T00:04:23;99841.06;;;13.71;100.00
58757;BME280;44527;47.460;19.016;2023-05-16T00:07:26;99827.31;;;13.67;100.00
58757;BME280;44527;47.460;19.016;2023-05-16T00:10:28;99815.81;;;13.68;100.00
58757;BME280;44527;47.460;19.016;2023-05-16T00:13:30;99808.19;;;13.75;100.00
58757;BME280;44527;47.460;19.016;2023-05-16T00:16:33;99813.44;;;13.65;100.00
58757;BME280;44527;47.460;19.016;2023-05-16T00:19:37;99811.50;;;13.77;100.00
58757;BME280;44527;47.460;19.016;2023-05-16T00:22:40;99804.25;;;13.60;100.00
58757;BME280;44527;47.460;19.016;2023-05-16T00:25:42;99805.94;;;13.70;100.00
58757;BME280;44527;47.460;19.016;2023-05-16T00:28:44;99795.09;;;13.64;100.00
58757;BME280;44527;47.460;19.016;2023-05-16T00:31:46;99802.56;;;13.59;100.00
58757;BME280;44527;47.460;19.016;2023-05-16T00:34:49;99798.75;;;13.72;100.00
58757;BME280;44527;47.460;19.016;2023-05-16T00:37:51;99804.38;;;13.58;100.00
58757;BME280;44527;47.460;19.016;2023-05-16T00:40:55;99811.53;;;13.46;100.00
58757;BME280;44527;47.460;19.016;2023-05-16T00:43:57;99806.88;;;13.50;100.00
58757;BME280;44527;47.460;19.016;2023-05-16T00:46:59;99806.00;;;13.49;100.00
58757;BME280;44527;47.460;19.016;2023-05-16T00:50:03;99808.06;;;13.46;100.00
58757;BME280;44527;47.460;19.016;2023-05-16T00:53:06;99808.03;;;13.36;100.00
58757;BME280;44527;47.460;19.016;2023-05-16T00:56:10;99811.13;;;13.41;100.00
58757;BME280;44527;47.460;19.016;2023-05-16T00:59:12;99820.84;;;13.41;100.00
58757;BME280;44527;47.460;19.016;2023-05-16T01:02:14;99824.88;;;13.45;100.00
58757;BME280;44527;47.460;19.016;2023-05-16T01:05:17;99831.94;;;13.44;100.00
58757;BME280;44527;47.460;19.016;2023-05-16T01:08:19;99825.69;;;13.45;100.00
58757;BME280;44527;47.460;19.016;2023-05-16T01:18:05;99835.00;;;13.49;100.00
58757;BME280;44527;47.460;19.016;2023-05-16T01:21:15;99836.25;;;13.45;100.00
58757;BME280;44527;47.460;19.016;2023-05-16T01:24:34;99823.31;;;13.42;100.00
58757;BME280;44527;47.460;19.016;2023-05-16T01:27:40;99816.66;;;13.38;100.00
58757;BME280;44527;47.460;19.016;2023-05-16T01:30:43;99831.66;;;13.38;100.00
58757;BME280;44527;47.460;19.016;2023-05-16T01:33:46;99828.75;;;13.41;100.00
58757;BME280;44527;47.460;19.016;2023-05-16T01:39:58;99828.88;;;13.39;100.00
58757;BME280;44527;47.460;19.016;2023-05-16T01:43:07;99813.75;;;13.41;100.00
58757;BME280;44527;47.460;19.016;2023-05-16T01:46:18;99799.12;;;13.27;100.00
58757;BME280;44527;47.460;19.016;2023-05-16T01:52:27;99803.19;;;13.31;100.00
58757;BME280;44527;47.460;19.016;2023-05-16T01:58:34;99784.19;;;13.38;100.00
58757;BME280;44527;47.460;19.016;2023-05-16T02:01:38;99779.84;;;13.27;100.00
58757;BME280;44527;47.460;19.016;2023-05-16T02:04:40;99774.94;;;13.22;100.00
58757;BME280;44527;47.460;19.016;2023-05-16T02:07:42;99780.59;;;13.18;100.00
58757;BME280;44527;47.460;19.016;2023-05-16T02:10:45;99785.44;;;13.13;100.00
58757;BME280;44527;47.460;19.016;2023-05-16T02:13:47;99786.28;;;13.13;100.00
58757;BME280;44527;47.460;19.016;2023-05-16T02:16:49;99785.16;;;13.16;100.00
58757;BME280;44527;47.460;19.016;2023-05-16T02:19:51;99790.63;;;13.24;100.00
58757;BME280;44527;47.460;19.016;2023-05-16T02:22:53;99780.91;;;13.24;100.00
58757;BME280;44527;47.460;19.016;2023-05-16T02:25:55;99764.22;;;13.14;100.00
58757;BME280;44527;47.460;19.016;2023-05-16T02:28:58;99751.28;;;13.01;100.00
58757;BME280;44527;47.460;19.016;2023-05-16T02:31:59;99753.75;;;13.03;100.00
58757;BME280;44527;47.460;19.016;2023-05-16T02:35:02;99756.69;;;13.09;100.00
58757;BME280;44527;47.460;19.016;2023-05-16T02:38:05;99751.41;;;13.00;100.00
58757;BME280;44527;47.460;19.016;2023-05-16T02:41:07;99739.88;;;13.01;100.00
58757;BME280;44527;47.460;19.016;2023-05-16T02:44:09;99740.50;;;13.14;100.00
58757;BME280;44527;47.460;19.016;2023-05-16T02:47:12;99763.22;;;13.05;100.00
58757;BME280;44527;47.460;19.016;2023-05-16T02:50:13;99778.00;;;12.97;100.00
58757;BME280;44527;47.460;19.016;2023-05-16T02:53:16;99778.72;;;12.99;100.00
58757;BME280;44527;47.460;19.016;2023-05-16T02:56:18;99775.22;;;13.19;100.00
58757;BME280;44527;47.460;19.016;2023-05-16T02:59:20;99776.38;;;13.05;100.00
58757;BME280;44527;47.460;19.016;2023-05-16T03:02:22;99779.09;;;12.94;100.00
58757;BME280;44527;47.460;19.016;2023-05-16T03:05:25;99767.00;;;12.92;100.00
58757;BME280;44527;47.460;19.016;2023-05-16T03:08:28;99755.84;;;12.99;100.00
58757;BME280;44527;47.460;19.016;2023-05-16T03:11:30;99741.03;;;13.08;100.00
58757;BME280;44527;47.460;19.016;2023-05-16T03:14:32;99740.47;;;13.04;100.00
58757;BME280;44527;47.460;19.016;2023-05-16T03:17:34;99740.34;;;13.06;100.00
58757;BME280;44527;47.460;19.016;2023-05-16T03:20:37;99751.69;;;13.06;100.00
58757;BME280;44527;47.460;19.016;2023-05-16T03:23:39;99758.31;;;13.01;100.00
58757;BME280;44527;47.460;19.016;2023-05-16T03:26:41;99765.00;;;13.05;100.00
58757;BME280;44527;47.460;19.016;2023-05-16T03:29:43;99769.31;;;13.06;100.00
58757;BME280;44527;47.460;19.016;2023-05-16T03:32:45;99774.56;;;13.06;100.00
58757;BME280;44527;47.460;19.016;2023-05-16T03:35:48;99776.44;;;13.15;100.00
58757;BME280;44527;47.460;19.016;2023-05-16T03:38:50;99770.28;;;13.26;100.00
58757;BME280;44527;47.460;19.016;2023-05-16T03:41:54;99766.34;;;13.20;100.00
58757;BME280;44527;47.460;19.016;2023-05-16T03:44:57;99766.91;;;13.24;100.00
58757;BME280;44527;47.460;19.016;2023-05-16T03:48:00;99754.63;;;13.34;100.00
58757;BME280;44527;47.460;19.016;2023-05-16T03:51:02;99746.78;;;13.44;100.00
58757;BME280;44527;47.460;19.016;2023-05-16T03:54:04;99750.34;;;13.43;100.00
58757;BME280;44527;47.460;19.016;2023-05-16T03:57:06;99747.56;;;13.35;100.00
58757;BME280;44527;47.460;19.016;2023-05-16T04:00:09;99762.53;;;13.34;100.00
58757;BME280;44527;47.460;19.016;2023-05-16T04:03:13;99751.19;;;13.43;100.00
58757;BME280;44527;47.460;19.016;2023-05-16T04:06:15;99747.59;;;13.44;100.00
58757;BME280;44527;47.460;19.016;2023-05-16T04:09:18;99749.00;;;13.48;100.00
58757;BME280;44527;47.460;19.016;2023-05-16T04:12:20;99753.53;;;13.37;100.00
58757;BME280;44527;47.460;19.016;2023-05-16T04:15:24;99746.78;;;13.53;100.00
58757;BME280;44527;47.460;19.016;2023-05-16T04:18:26;99771.06;;;13.47;100.00
58757;BME280;44527;47.460;19.016;2023-05-16T04:21:28;99772.72;;;13.48;100.00
58757;BME280;44527;47.460;19.016;2023-05-16T04:24:30;99764.97;;;13.56;100.00
58757;BME280;44527;47.460;19.016;2023-05-16T04:27:33;99763.72;;;13.61;100.00
58757;BME280;44527;47.460;19.016;2023-05-16T04:30:35;99771.53;;;13.62;100.00
58757;BME280;44527;47.460;19.016;2023-05-16T04:33:38;99777.63;;;13.63;100.00
58757;BME280;44527;47.460;19.016;2023-05-16T04:36:40;99786.06;;;13.56;100.00
58757;BME280;44527;47.460;19.016;2023-05-16T04:39:43;99780.22;;;13.53;100.00
58757;BME280;44527;47.460;19.016;2023-05-16T04:42:45;99780.25;;;13.63;100.00
58757;BME280;44527;47.460;19.016;2023-05-16T04:45:48;99780.66;;;13.68;100.00
58757;BME280;44527;47.460;19.016;2023-05-16T04:48:51;99783.47;;;13.66;100.00
58757;BME280;44527;47.460;19.016;2023-05-16T04:51:53;99781.81;;;13.75;100.00
58757;BME280;44527;47.460;19.016;2023-05-16T04:54:55;99785.91;;;13.58;100.00
58757;BME280;44527;47.460;19.016;2023-05-16T04:58:00;99789.25;;;13.60;100.00
58757;BME280;44527;47.460;19.016;2023-05-16T05:01:02;99800.94;;;13.67;100.00
58757;BME280;44527;47.460;19.016;2023-05-16T05:04:05;99807.38;;;13.74;100.00
58757;BME280;44527;47.460;19.016;2023-05-16T05:07:07;99805.84;;;13.82;100.00
58757;BME280;44527;47.460;19.016;2023-05-16T05:10:10;99792.94;;;13.88;100.00
58757;BME280;44527;47.460;19.016;2023-05-16T05:13:12;99796.13;;;13.92;100.00
58757;BME280;44527;47.460;19.016;2023-05-16T05:16:15;99809.31;;;13.92;100.00
58757;BME280;44527;47.460;19.016;2023-05-16T05:19:17;99808.78;;;13.88;100.00
58757;BME280;44527;47.460;19.016;2023-05-16T05:22:20;99809.59;;;13.79;100.00
58757;BME280;44527;47.460;19.016;2023-05-16T05:25:22;99801.00;;;13.87;100.00
58757;BME280;44527;47.460;19.016;2023-05-16T05:28:24;99804.31;;;13.89;100.00
58757;BME280;44527;47.460;19.016;2023-05-16T05:31:26;99795.75;;;13.96;100.00
58757;BME280;44527;47.460;19.016;2023-05-16T05:34:33;99798.22;;;13.88;100.00
58757;BME280;44527;47.460;19.016;2023-05-16T05:37:36;99797.41;;;13.97;100.00
58757;BME280;44527;47.460;19.016;2023-05-16T05:40:38;99798.94;;;14.10;100.00
58757;BME280;44527;47.460;19.016;2023-05-16T05:43:40;99796.75;;;14.15;100.00
58757;BME280;44527;47.460;19.016;2023-05-16T05:46:43;99787.84;;;14.25;100.00
58757;BME280;44527;47.460;19.016;2023-05-16T05:49:47;99790.75;;;14.32;100.00
58757;BME280;44527;47.460;19.016;2023-05-16T05:52:49;99792.28;;;14.15;100.00
58757;BME280;44527;47.460;19.016;2023-05-16T05:55:51;99798.81;;;14.21;100.00
58757;BME280;44527;47.460;19.016;2023-05-16T05:58:54;99801.88;;;14.16;100.00
58757;BME280;44527;47.460;19.016;2023-05-16T06:01:57;99793.28;;;14.14;100.00
58757;BME280;44527;47.460;19.016;2023-05-16T06:05:00;99792.12;;;14.17;100.00
58757;BME280;44527;47.460;19.016;2023-05-16T06:08:03;99791.31;;;14.16;100.00
58757;BME280;44527;47.460;19.016;2023-05-16T06:11:06;99781.84;;;14.14;100.00
58757;BME280;44527;47.460;19.016;2023-05-16T06:14:09;99780.91;;;14.15;100.00
58757;BME280;44527;47.460;19.016;2023-05-16T06:17:12;99774.38;;;14.29;100.00
58757;BME280;44527;47.460;19.016;2023-05-16T06:20:15;99779.81;;;14.27;100.00
58757;BME280;44527;47.460;19.016;2023-05-16T06:23:17;99776.16;;;14.38;100.00
58757;BME280;44527;47.460;19.016;2023-05-16T06:26:22;99781.72;;;14.35;100.00
58757;BME280;44527;47.460;19.016;2023-05-16T06:29:24;99772.41;;;14.40;100.00
58757;BME280;44527;47.460;19.016;2023-05-16T06:32:27;99760.22;;;14.39;100.00
58757;BME280;44527;47.460;19.016;2023-05-16T06:35:30;99761.72;;;14.32;100.00
58757;BME280;44527;47.460;19.016;2023-05-16T06:38:33;99763.53;;;14.32;100.00
58757;BME280;44527;47.460;19.016;2023-05-16T06:41:35;99756.31;;;14.34;100.00
58757;BME280;44527;47.460;19.016;2023-05-16T06:44:37;99759.34;;;14.29;100.00
58757;BME280;44527;47.460;19.016;2023-05-16T06:47:40;99771.03;;;14.36;100.00
58757;BME280;44527;47.460;19.016;2023-05-16T06:50:45;99772.28;;;14.32;100.00
58757;BME280;44527;47.460;19.016;2023-05-16T06:53:48;99772.69;;;14.37;100.00
58757;BME280;44527;47.460;19.016;2023-05-16T06:56:50;99766.88;;;14.34;100.00
58757;BME280;44527;47.460;19.016;2023-05-16T06:59:52;99767.84;;;14.23;100.00
58757;BME280;44527;47.460;19.016;2023-05-16T07:02:54;99778.53;;;14.21;100.00
58757;BME280;44527;47.460;19.016;2023-05-16T07:05:57;99779.09;;;14.15;100.00
58757;BME280;44527;47.460;19.016;2023-05-16T07:08:59;99777.16;;;14.17;100.00
58757;BME280;44527;47.460;19.016;2023-05-16T07:12:03;99776.59;;;14.23;100.00
58757;BME280;44527;47.460;19.016;2023-05-16T07:15:05;99783.25;;;14.37;100.00
58757;BME280;44527;47.460;19.016;2023-05-16T07:18:08;99779.91;;;14.25;100.00
58757;BME280;44527;47.460;19.016;2023-05-16T07:21:10;99777.44;;;14.34;100.00
58757;BME280;44527;47.460;19.016;2023-05-16T07:24:12;99769.22;;;14.46;100.00
58757;BME280;44527;47.460;19.016;2023-05-16T07:27:15;99756.03;;;14.46;100.00
58757;BME280;44527;47.460;19.016;2023-05-16T07:30:17;99752.84;;;14.43;100.00
58757;BME280;44527;47.460;19.016;2023-05-16T07:33:19;99749.50;;;14.41;100.00
58757;BME280;44527;47.460;19.016;2023-05-16T07:36:22;99762.13;;;14.37;100.00
58757;BME280;44527;47.460;19.016;2023-05-16T07:39:26;99754.09;;;14.48;100.00
58757;BME280;44527;47.460;19.016;2023-05-16T07:42:32;99755.09;;;14.57;100.00
58757;BME280;44527;47.460;19.016;2023-05-16T07:45:34;99758.13;;;14.53;100.00
58757;BME280;44527;47.460;19.016;2023-05-16T07:48:37;99759.66;;;14.45;100.00
58757;BME280;44527;47.460;19.016;2023-05-16T07:51:42;99751.44;;;14.48;100.00
58757;BME280;44527;47.460;19.016;2023-05-16T07:54:45;99741.03;;;14.57;100.00
58757;BME280;44527;47.460;19.016;2023-05-16T07:57:54;99748.66;;;14.50;100.00
58757;BME280;44527;47.460;19.016;2023-05-16T08:01:00;99755.47;;;14.33;100.00
58757;BME280;44527;47.460;19.016;2023-05-16T08:04:03;99747.56;;;14.23;100.00
58757;BME280;44527;47.460;19.016;2023-05-16T08:07:05;99749.22;;;14.34;100.00
58757;BME280;44527;47.460;19.016;2023-05-16T08:10:08;99758.09;;;14.14;100.00
58757;BME280;44527;47.460;19.016;2023-05-16T08:13:14;99758.53;;;14.19;100.00
58757;BME280;44527;47.460;19.016;2023-05-16T08:16:19;99769.38;;;14.16;100.00
58757;BME280;44527;47.460;19.016;2023-05-16T08:19:21;99763.25;;;14.15;100.00
58757;BME280;44527;47.460;19.016;2023-05-16T08:22:24;99757.16;;;14.24;100.00
58757;BME280;44527;47.460;19.016;2023-05-16T08:25:27;99761.16;;;14.29;100.00
58757;BME280;44527;47.460;19.016;2023-05-16T08:28:30;99757.84;;;14.27;100.00
58757;BME280;44527;47.460;19.016;2023-05-16T08:31:33;99752.28;;;14.39;100.00
58757;BME280;44527;47.460;19.016;2023-05-16T08:34:36;99752.03;;;14.52;100.00
58757;BME280;44527;47.460;19.016;2023-05-16T08:37:38;99731.72;;;14.33;100.00
58757;BME280;44527;47.460;19.016;2023-05-16T08:40:41;99729.91;;;14.43;100.00
58757;BME280;44527;47.460;19.016;2023-05-16T08:43:44;99723.34;;;14.47;100.00
58757;BME280;44527;47.460;19.016;2023-05-16T08:46:50;99735.88;;;14.45;100.00
58757;BME280;44527;47.460;19.016;2023-05-16T08:49:54;99742.97;;;14.45;100.00
58757;BME280;44527;47.460;19.016;2023-05-16T08:53:01;99740.59;;;14.32;100.00
58757;BME280;44527;47.460;19.016;2023-05-16T08:56:07;99738.66;;;14.44;100.00
58757;BME280;44527;47.460;19.016;2023-05-16T08:59:10;99745.19;;;14.49;100.00
58757;BME280;44527;47.460;19.016;2023-05-16T09:02:13;99742.25;;;14.72;100.00
58757;BME280;44527;47.460;19.016;2023-05-16T09:05:22;99734.75;;;14.67;100.00
58757;BME280;44527;47.460;19.016;2023-05-16T09:08:25;99741.19;;;14.55;100.00
58757;BME280;44527;47.460;19.016;2023-05-16T09:11:28;99745.75;;;14.53;100.00
58757;BME280;44527;47.460;19.016;2023-05-16T09:14:30;99732.53;;;14.43;100.00
58757;BME280;44527;47.460;19.016;2023-05-16T09:17:34;99733.09;;;14.47;100.00
58757;BME280;44527;47.460;19.016;2023-05-16T09:20:42;99731.16;;;14.59;100.00
58757;BME280;44527;47.460;19.016;2023-05-16T09:23:48;99728.69;;;14.57;100.00
58757;BME280;44527;47.460;19.016;2023-05-16T09:26:51;99732.56;;;14.53;100.00
58757;BME280;44527;47.460;19.016;2023-05-16T09:29:54;99727.16;;;14.55;100.00
58757;BME280;44527;47.460;19.016;2023-05-16T09:32:58;99718.78;;;14.59;100.00
58757;BME280;44527;47.460;19.016;2023-05-16T09:36:01;99717.09;;;14.68;100.00
58757;BME280;44527;47.460;19.016;2023-05-16T09:39:05;99722.25;;;14.69;100.00
58757;BME280;44527;47.460;19.016;2023-05-16T09:42:11;99729.72;;;14.74;100.00
58757;BME280;44527;47.460;19.016;2023-05-16T09:45:14;99721.78;;;14.84;100.00
58757;BME280;44527;47.460;19.016;2023-05-16T09:48:19;99742.09;;;14.83;100.00
58757;BME280;44527;47.460;19.016;2023-05-16T09:51:22;99728.03;;;14.83;100.00
58757;BME280;44527;47.460;19.016;2023-05-16T09:54:34;99727.34;;;14.81;100.00
58757;BME280;44527;47.460;19.016;2023-05-16T09:57:37;99725.94;;;14.86;100.00
58757;BME280;44527;47.460;19.016;2023-05-16T10:00:40;99729.03;;;14.82;100.00
58757;BME280;44527;47.460;19.016;2023-05-16T10:03:44;99730.00;;;14.81;100.00
58757;BME280;44527;47.460;19.016;2023-05-16T10:06:46;99730.88;;;14.62;100.00
58757;BME280;44527;47.460;19.016;2023-05-16T10:09:52;99730.47;;;14.66;100.00
58757;BME280;44527;47.460;19.016;2023-05-16T10:12:55;99724.47;;;14.64;100.00
58757;BME280;44527;47.460;19.016;2023-05-16T10:16:07;99727.25;;;14.63;100.00
58757;BME280;44527;47.460;19.016;2023-05-16T10:19:11;99727.94;;;14.65;100.00
58757;BME280;44527;47.460;19.016;2023-05-16T10:22:14;99714.19;;;14.61;100.00
58757;BME280;44527;47.460;19.016;2023-05-16T10:28:22;99704.03;;;14.47;100.00
58757;BME280;44527;47.460;19.016;2023-05-16T10:31:25;99691.81;;;14.46;100.00
58757;BME280;44527;47.460;19.016;2023-05-16T10:34:30;99692.38;;;14.40;100.00
58757;BME280;44527;47.460;19.016;2023-05-16T10:37:32;99689.19;;;14.56;100.00
58757;BME280;44527;47.460;19.016;2023-05-16T10:40:36;99695.75;;;14.52;100.00
58757;BME280;44527;47.460;19.016;2023-05-16T10:43:38;99703.50;;;14.53;100.00
58757;BME280;44527;47.460;19.016;2023-05-16T10:46:45;99700.28;;;14.59;100.00
58757;BME280;44527;47.460;19.016;2023-05-16T10:49:47;99693.91;;;14.62;100.00
58757;BME280;44527;47.460;19.016;2023-05-16T10:52:51;99678.19;;;14.70;100.00
58757;BME280;44527;47.460;19.016;2023-05-16T10:59:03;99657.31;;;15.04;100.00
58757;BME280;44527;47.460;19.016;2023-05-16T11:05:23;99658.25;;;15.13;100.00
58757;BME280;44527;47.460;19.016;2023-05-16T11:08:27;99647.91;;;15.20;100.00
58757;BME280;44527;47.460;19.016;2023-05-16T11:14:49;99651.91;;;15.24;100.00
58757;BME280;44527;47.460;19.016;2023-05-16T11:18:05;99635.91;;;15.25;100.00
58757;BME280;44527;47.460;19.016;2023-05-16T11:21:08;99616.53;;;15.34;100.00
58757;BME280;44527;47.460;19.016;2023-05-16T11:24:26;99610.47;;;15.60;100.00
58757;BME280;44527;47.460;19.016;2023-05-16T11:27:34;99606.81;;;15.71;100.00
58757;BME280;44527;47.460;19.016;2023-05-16T11:30:41;99608.16;;;15.75;100.00
58757;BME280;44527;47.460;19.016;2023-05-16T11:33:43;99616.47;;;15.62;100.00
58757;BME280;44527;47.460;19.016;2023-05-16T11:36:49;99627.28;;;15.69;100.00
58757;BME280;44527;47.460;19.016;2023-05-16T11:39:51;99633.00;;;15.64;100.00
58757;BME280;44527;47.460;19.016;2023-05-16T11:42:53;99619.63;;;15.66;100.00
58757;BME280;44527;47.460;19.016;2023-05-16T11:45:55;99614.34;;;15.66;100.00
58757;BME280;44527;47.460;19.016;2023-05-16T11:48:58;99609.50;;;15.61;100.00
58757;BME280;44527;47.460;19.016;2023-05-16T11:52:00;99602.94;;;15.65;100.00
58757;BME280;44527;47.460;19.016;2023-05-16T11:55:03;99594.94;;;15.75;100.00
58757;BME280;44527;47.460;19.016;2023-05-16T11:58:06;99596.81;;;15.65;100.00
58757;BME280;44527;47.460;19.016;2023-05-16T12:01:12;99598.88;;;15.71;100.00
58757;BME280;44527;47.460;19.016;2023-05-16T12:04:15;99593.56;;;15.89;100.00
58757;BME280;44527;47.460;19.016;2023-05-16T12:07:19;99589.91;;;16.07;100.00
58757;BME280;44527;47.460;19.016;2023-05-16T12:10:25;99585.84;;;16.21;100.00
58757;BME280;44527;47.460;19.016;2023-05-16T12:13:28;99595.78;;;16.19;100.00
58757;BME280;44527;47.460;19.016;2023-05-16T12:16:32;99585.59;;;16.33;100.00
58757;BME280;44527;47.460;19.016;2023-05-16T12:19:35;99583.75;;;16.33;100.00
58757;BME280;44527;47.460;19.016;2023-05-16T12:22:39;99593.28;;;16.18;100.00
58757;BME280;44527;47.460;19.016;2023-05-16T12:25:46;99591.31;;;16.20;100.00
58757;BME280;44527;47.460;19.016;2023-05-16T12:28:52;99587.66;;;16.21;100.00
58757;BME280;44527;47.460;19.016;2023-05-16T12:31:54;99605.09;;;16.05;100.00
58757;BME280;44527;47.460;19.016;2023-05-16T12:35:00;99599.53;;;15.91;100.00
58757;BME280;44527;47.460;19.016;2023-05-16T12:38:04;99592.69;;;16.06;100.00
58757;BME280;44527;47.460;19.016;2023-05-16T12:41:06;99583.41;;;16.02;100.00
58757;BME280;44527;47.460;19.016;2023-05-16T12:44:15;99581.91;;;15.99;100.00
58757;BME280;44527;47.460;19.016;2023-05-16T12:47:18;99591.63;;;16.17;100.00
58757;BME280;44527;47.460;19.016;2023-05-16T12:50:25;99597.03;;;16.07;100.00
58757;BME280;44527;47.460;19.016;2023-05-16T12:53:28;99594.50;;;16.05;100.00
58757;BME280;44527;47.460;19.016;2023-05-16T12:56:30;99600.81;;;15.87;100.00
58757;BME280;44527;47.460;19.016;2023-05-16T12:59:32;99593.94;;;15.94;100.00
58757;BME280;44527;47.460;19.016;2023-05-16T13:02:35;99581.81;;;15.91;100.00
58757;BME280;44527;47.460;19.016;2023-05-16T13:05:38;99579.53;;;16.14;100.00
58757;BME280;44527;47.460;19.016;2023-05-16T13:08:40;99573.91;;;16.17;100.00
58757;BME280;44527;47.460;19.016;2023-05-16T13:11:42;99572.72;;;16.12;100.00
58757;BME280;44527;47.460;19.016;2023-05-16T13:14:45;99567.78;;;16.17;100.00
58757;BME280;44527;47.460;19.016;2023-05-16T13:17:48;99555.75;;;16.22;100.00
58757;BME280;44527;47.460;19.016;2023-05-16T13:20:50;99545.03;;;16.06;100.00
58757;BME280;44527;47.460;19.016;2023-05-16T13:23:52;99545.25;;;16.13;100.00
58757;BME280;44527;47.460;19.016;2023-05-16T13:26:55;99530.97;;;16.05;100.00
58757;BME280;44527;47.460;19.016;2023-05-16T13:29:58;99531.81;;;16.06;100.00
58757;BME280;44527;47.460;19.016;2023-05-16T13:33:01;99520.72;;;16.02;100.00
58757;BME280;44527;47.460;19.016;2023-05-16T13:36:07;99515.31;;;16.12;100.00
58757;BME280;44527;47.460;19.016;2023-05-16T13:39:10;99513.47;;;16.13;100.00
58757;BME280;44527;47.460;19.016;2023-05-16T13:42:14;99494.62;;;16.16;100.00
58757;BME280;44527;47.460;19.016;2023-05-16T13:45:16;99498.13;;;16.16;100.00
58757;BME280;44527;47.460;19.016;2023-05-16T13:48:18;99499.28;;;16.14;100.00
58757;BME280;44527;47.460;19.016;2023-05-16T13:51:20;99503.38;;;16.42;100.00
58757;BME280;44527;47.460;19.016;2023-05-16T13:54:23;99505.06;;;16.51;100.00
58757;BME280;44527;47.460;19.016;2023-05-16T13:57:25;99503.81;;;16.72;100.00
58757;BME280;44527;47.460;19.016;2023-05-16T14:00:28;99499.66;;;16.69;100.00
58757;BME280;44527;47.460;19.016;2023-05-16T14:03:46;99497.69;;;16.71;100.00
58757;BME280;44527;47.460;19.016;2023-05-16T14:06:48;99497.44;;;16.91;100.00
58757;BME280;44527;47.460;19.016;2023-05-16T14:09:51;99494.66;;;17.09;100.00
58757;BME280;44527;47.460;19.016;2023-05-16T14:12:56;99488.19;;;17.28;100.00
58757;BME280;44527;47.460;19.016;2023-05-16T14:15:58;99497.81;;;17.37;100.00
58757;BME280;44527;47.460;19.016;2023-05-16T14:19:01;99496.16;;;17.28;100.00
58757;BME280;44527;47.460;19.016;2023-05-16T14:22:04;99494.16;;;17.30;100.00
58757;BME280;44527;47.460;19.016;2023-05-16T14:25:06;99482.53;;;17.06;100.00
58757;BME280;44527;47.460;19.016;2023-05-16T14:28:09;99495.78;;;16.98;100.00
58757;BME280;44527;47.460;19.016;2023-05-16T14:31:12;99493.13;;;16.90;100.00
58757;BME280;44527;47.460;19.016;2023-05-16T14:34:14;99503.53;;;16.83;100.00
58757;BME280;44527;47.460;19.016;2023-05-16T14:37:17;99515.47;;;16.87;100.00
58757;BME280;44527;47.460;19.016;2023-05-16T14:40:19;99515.06;;;16.74;100.00
58757;BME280;44527;47.460;19.016;2023-05-16T14:43:22;99523.88;;;16.74;100.00
58757;BME280;44527;47.460;19.016;2023-05-16T14:46:25;99520.16;;;16.59;100.00
58757;BME280;44527;47.460;19.016;2023-05-16T14:49:27;99517.84;;;16.56;100.00
58757;BME280;44527;47.460;19.016;2023-05-16T14:52:30;99513.19;;;16.50;100.00
58757;BME280;44527;47.460;19.016;2023-05-16T14:55:32;99525.06;;;16.46;100.00
58757;BME280;44527;47.460;19.016;2023-05-16T14:58:34;99515.28;;;16.46;100.00
58757;BME280;44527;47.460;19.016;2023-05-16T15:01:36;99512.44;;;16.31;100.00
58757;BME280;44527;47.460;19.016;2023-05-16T15:04:39;99510.44;;;16.34;100.00
58757;BME280;44527;47.460;19.016;2023-05-16T15:07:41;99516.03;;;16.22;100.00
58757;BME280;44527;47.460;19.016;2023-05-16T15:10:45;99522.97;;;16.23;100.00
58757;BME280;44527;47.460;19.016;2023-05-16T15:13:47;99524.94;;;16.21;100.00
58757;BME280;44527;47.460;19.016;2023-05-16T15:16:49;99522.31;;;16.21;100.00
58757;BME280;44527;47.460;19.016;2023-05-16T15:19:51;99523.66;;;16.25;100.00
58757;BME280;44527;47.460;19.016;2023-05-16T15:22:55;99518.78;;;16.13;100.00
58757;BME280;44527;47.460;19.016;2023-05-16T15:25:57;99508.00;;;16.06;100.00
58757;BME280;44527;47.460;19.016;2023-05-16T15:28:59;99508.97;;;16.05;100.00
58757;BME280;44527;47.460;19.016;2023-05-16T15:32:03;99504.47;;;15.97;100.00
58757;BME280;44527;47.460;19.016;2023-05-16T15:35:06;99498.50;;;15.95;100.00
58757;BME280;44527;47.460;19.016;2023-05-16T15:38:08;99493.34;;;15.94;100.00
58757;BME280;44527;47.460;19.016;2023-05-16T15:41:10;99489.38;;;15.90;100.00
58757;BME280;44527;47.460;19.016;2023-05-16T15:44:27;99489.38;;;15.90;100.00
58757;BME280;44527;47.460;19.016;2023-05-16T15:47:29;99484.84;;;15.82;100.00
58757;BME280;44527;47.460;19.016;2023-05-16T15:50:32;99481.38;;;15.81;100.00
58757;BME280;44527;47.460;19.016;2023-05-16T15:53:34;99464.47;;;15.74;100.00
58757;BME280;44527;47.460;19.016;2023-05-16T15:56:36;99469.09;;;15.72;100.00
58757;BME280;44527;47.460;19.016;2023-05-16T15:59:39;99463.16;;;15.78;100.00
58757;BME280;44527;47.460;19.016;2023-05-16T16:02:41;99462.22;;;15.61;100.00
58757;BME280;44527;47.460;19.016;2023-05-16T16:05:46;99461.91;;;15.65;100.00
58757;BME280;44527;47.460;19.016;2023-05-16T16:08:49;99460.63;;;15.69;100.00
58757;BME280;44527;47.460;19.016;2023-05-16T16:11:52;99451.78;;;15.60;100.00
58757;BME280;44527;47.460;19.016;2023-05-16T16:14:57;99452.28;;;15.63;100.00